Time;durP1;ratioP1;P1;durP2;ratioP2;P2;SDS_P1;SDS_P2;PMS_P1;PMS_P2;Temp;Humidity;BMP_temperature;BMP_pressure;BME280_temperature;BME280_humidity;BME280_pressure;Samples;Min_cycle;Max_cycle;Signal;HPM_P1;HPM_P2
2022/10/19 00:01:22;;;;;;;13.13;9.55;;;17.30;99.90;;;;;;5094904;28;20035;-66
2022/10/19 00:03:52;;;;;;;14.38;9.93;;;17.20;99.90;;;;;;5094501;28;20032;-65
2022/10/19 00:06:30;;;;;;;13.23;9.35;;;17.20;99.90;;;;;;5095009;28;20032;-65
2022/10/19 00:09:11;;;;;;;19.27;10.13;;;17.20;99.90;;;;;;5094083;28;20122;-67
2022/10/19 00:11:39;;;;;;;17.42;9.35;;;17.20;99.90;;;;;;5094541;28;20024;-65
2022/10/19 00:14:07;;;;;;;15.10;10.20;;;17.20;99.90;;;;;;5094692;28;20118;-65
2022/10/19 00:16:36;;;;;;;13.63;9.93;;;17.20;99.90;;;;;;5094977;28;20039;-65
2022/10/19 00:19:05;;;;;;;16.92;10.88;;;17.20;99.90;;;;;;5094204;28;20108;-65
2022/10/19 00:21:31;;;;;;;15.07;10.13;;;17.10;99.90;;;;;;5094442;28;20075;-65
2022/10/19 00:23:57;;;;;;;14.95;10.32;;;17.10;99.90;;;;;;5094089;28;20028;-66
2022/10/19 00:26:24;;;;;;;14.52;9.90;;;17.10;99.90;;;;;;5094517;28;20031;-65
2022/10/19 00:28:53;;;;;;;15.38;10.63;;;17.10;99.90;;;;;;5075686;28;20039;-65
2022/10/19 00:31:19;;;;;;;14.65;10.43;;;17.10;99.90;;;;;;5094478;28;20020;-66
2022/10/19 00:33:45;;;;;;;15.40;9.85;;;17.10;99.90;;;;;;5093987;28;20042;-66
2022/10/19 00:36:24;;;;;;;17.67;10.35;;;17.10;99.90;;;;;;5094190;28;20016;-65
2022/10/19 00:38:50;;;;;;;14.45;10.07;;;17.00;99.90;;;;;;5093481;28;20028;-66
2022/10/19 00:41:17;;;;;;;14.20;9.65;;;17.00;99.90;;;;;;5093863;28;20362;-67
2022/10/19 00:43:55;;;;;;;13.75;10.52;;;17.00;99.90;;;;;;5093744;28;20056;-67
2022/10/19 00:46:21;;;;;;;15.13;10.10;;;17.00;99.90;;;;;;5093593;28;20024;-66
2022/10/19 00:48:47;;;;;;;15.35;10.88;;;16.90;99.90;;;;;;5093159;28;20063;-66
2022/10/19 00:51:13;;;;;;;14.70;10.05;;;16.90;99.90;;;;;;5093614;28;20055;-66
2022/10/19 00:53:40;;;;;;;18.88;10.38;;;16.90;99.90;;;;;;5094000;28;20157;-66
2022/10/19 00:56:11;;;;;;;15.80;9.90;;;16.90;99.90;;;;;;5093055;28;20044;-66
2022/10/19 00:58:38;;;;;;;15.82;10.68;;;16.90;99.90;;;;;;5093855;28;20055;-66
2022/10/19 01:01:04;;;;;;;17.35;10.50;;;16.90;99.90;;;;;;5093051;28;20032;-66
2022/10/19 01:03:32;;;;;;;14.23;9.98;;;16.90;99.90;;;;;;5093613;28;20119;-66
2022/10/19 01:05:58;;;;;;;13.80;10.35;;;16.90;99.90;;;;;;5093328;28;20567;-66
2022/10/19 01:08:25;;;;;;;15.15;9.60;;;16.80;99.90;;;;;;5093449;28;20384;-66
2022/10/19 01:11:05;;;;;;;15.07;10.05;;;16.80;99.90;;;;;;5093280;28;20024;-66
2022/10/19 01:13:49;;;;;;;15.55;10.15;;;16.80;99.90;;;;;;5093483;28;20032;-67
2022/10/19 01:16:24;;;;;;;14.10;8.95;;;16.80;99.90;;;;;;5093490;28;20451;-66
2022/10/19 01:19:37;;;;;;;13.45;8.93;;;16.80;99.90;;;;;;5093155;28;20023;-66
2022/10/19 01:22:25;;;;;;;14.32;9.32;;;16.80;99.90;;;;;;5092750;28;20028;-66
2022/10/19 01:25:04;;;;;;;16.10;10.00;;;16.70;99.90;;;;;;5092898;28;20035;-66
2022/10/19 01:27:38;;;;;;;13.07;9.30;;;16.70;99.90;;;;;;5093390;28;20098;-66
2022/10/19 01:30:22;;;;;;;13.40;9.07;;;16.70;99.90;;;;;;5092686;28;20032;-66
2022/10/19 01:32:58;;;;;;;13.43;8.90;;;16.70;99.90;;;;;;5092824;28;20410;-65
2022/10/19 01:35:50;;;;;;;12.75;8.35;;;16.70;99.90;;;;;;5093451;28;20099;-66
2022/10/19 01:38:34;;;;;;;12.88;9.07;;;16.70;99.90;;;;;;5092818;28;20020;-65
2022/10/19 01:41:18;;;;;;;13.48;7.85;;;16.70;99.90;;;;;;5092872;28;20085;-66
2022/10/19 01:43:57;;;;;;;13.32;8.07;;;16.70;99.90;;;;;;5093210;28;20024;-66
2022/10/19 01:46:38;;;;;;;12.57;8.48;;;16.70;99.90;;;;;;5092667;28;20477;-66
2022/10/19 01:49:25;;;;;;;11.60;8.18;;;16.60;99.90;;;;;;5081637;28;20032;-66
2022/10/19 01:51:57;;;;;;;10.23;7.35;;;16.70;99.90;;;;;;5092722;28;20533;-66
2022/10/19 01:54:27;;;;;;;11.52;8.32;;;16.60;99.90;;;;;;5092811;28;20024;-65
2022/10/19 01:56:55;;;;;;;10.18;7.47;;;16.50;99.90;;;;;;5092708;28;20055;-66
2022/10/19 01:59:22;;;;;;;11.73;8.18;;;16.60;99.90;;;;;;5092941;28;20177;-66
2022/10/19 02:01:49;;;;;;;18.42;7.55;;;16.50;99.90;;;;;;5092436;28;20032;-67
2022/10/19 02:04:19;;;;;;;10.05;7.18;;;16.50;99.90;;;;;;5092790;28;20032;-66
2022/10/19 02:06:45;;;;;;;9.90;6.85;;;16.50;99.90;;;;;;5092934;28;20107;-66
2022/10/19 02:09:16;;;;;;;9.00;7.18;;;16.50;99.90;;;;;;5092314;28;20538;-66
2022/10/19 02:11:44;;;;;;;9.30;6.65;;;16.50;99.90;;;;;;5094286;28;20034;-66
2022/10/19 02:14:14;;;;;;;11.93;6.55;;;16.50;99.90;;;;;;5096524;28;20139;-67
2022/10/19 02:16:58;;;;;;;9.25;6.55;;;16.50;99.90;;;;;;5096934;28;20056;-65
2022/10/19 02:19:24;;;;;;;9.63;5.85;;;16.40;99.90;;;;;;5097019;28;20032;-67
2022/10/19 02:21:51;;;;;;;8.45;5.95;;;16.40;99.90;;;;;;5096421;28;20026;-68
2022/10/19 02:24:17;;;;;;;9.63;6.25;;;16.40;99.90;;;;;;5097081;28;20028;-64
2022/10/19 02:26:43;;;;;;;8.88;6.47;;;16.30;99.90;;;;;;5096820;28;20073;-65
2022/10/19 02:29:10;;;;;;;9.75;6.05;;;16.30;99.90;;;;;;5096008;28;20043;-64
2022/10/19 02:31:36;;;;;;;8.23;5.75;;;16.30;99.90;;;;;;5096645;28;20035;-66
2022/10/19 02:34:02;;;;;;;8.63;6.35;;;16.30;99.90;;;;;;5096279;28;20028;-67
2022/10/19 02:36:28;;;;;;;8.60;5.80;;;16.30;99.90;;;;;;5096569;28;20103;-66
2022/10/19 02:38:53;;;;;;;10.75;6.05;;;16.20;99.90;;;;;;5095903;28;20110;-65
2022/10/19 02:41:45;;;;;;;9.38;6.25;;;16.10;99.90;;;;;;5096137;28;20032;-64
2022/10/19 02:44:35;;;;;;;9.98;6.60;;;16.10;99.90;;;;;;5095208;28;20052;-65
2022/10/19 02:47:11;;;;;;;7.53;5.60;;;16.00;99.90;;;;;;5096311;28;20457;-67
2022/10/19 02:49:37;;;;;;;9.35;6.13;;;16.00;99.90;;;;;;5096028;28;20434;-66
2022/10/19 02:52:05;;;;;;;9.98;6.20;;;15.90;99.90;;;;;;5077592;28;20370;-66
2022/10/19 02:54:31;;;;;;;8.38;6.47;;;15.90;99.90;;;;;;5095998;28;20040;-65
2022/10/19 02:56:57;;;;;;;9.50;6.28;;;15.90;99.90;;;;;;5095881;28;20566;-66
2022/10/19 02:59:23;;;;;;;11.63;5.68;;;15.80;99.90;;;;;;5096171;28;20115;-65
2022/10/19 03:01:49;;;;;;;9.38;6.05;;;15.80;99.90;;;;;;5096104;28;20054;-65
2022/10/19 03:04:15;;;;;;;8.00;5.75;;;15.80;99.90;;;;;;5095419;28;20477;-65
2022/10/19 03:06:41;;;;;;;7.80;5.45;;;15.70;99.90;;;;;;5096317;28;20028;-65
2022/10/19 03:09:07;;;;;;;8.15;5.95;;;15.70;99.90;;;;;;5095560;28;20460;-65
2022/10/19 03:11:32;;;;;;;6.60;5.60;;;15.70;99.90;;;;;;5095977;28;20111;-66
2022/10/19 03:13:58;;;;;;;8.85;5.13;;;15.60;99.90;;;;;;5095539;28;20561;-66
2022/10/19 03:16:24;;;;;;;7.65;5.10;;;15.60;99.90;;;;;;5095864;28;20031;-66
2022/10/19 03:18:50;;;;;;;7.05;5.03;;;15.60;99.90;;;;;;5095781;28;20513;-66
2022/10/19 03:21:16;;;;;;;8.80;5.43;;;15.60;99.90;;;;;;5077159;28;20376;-66
2022/10/19 03:23:43;;;;;;;7.07;5.20;;;15.50;99.90;;;;;;5094024;28;20024;-64
2022/10/19 03:26:12;;;;;;;7.97;5.20;;;15.50;99.90;;;;;;5095129;28;20035;-65
2022/10/19 03:28:39;;;;;;;7.35;4.65;;;15.40;99.90;;;;;;5095270;28;20123;-65
2022/10/19 03:31:05;;;;;;;7.63;4.63;;;15.40;99.90;;;;;;5094906;28;20451;-66
2022/10/19 03:33:30;;;;;;;7.32;5.00;;;15.40;99.90;;;;;;5095274;28;20024;-66
2022/10/19 03:36:12;;;;;;;7.50;5.45;;;15.40;99.90;;;;;;5095361;28;20453;-66
2022/10/19 03:38:38;;;;;;;7.00;5.15;;;15.40;99.90;;;;;;5095466;28;20066;-65
2022/10/19 03:41:07;;;;;;;7.00;4.88;;;15.30;99.90;;;;;;5095268;28;20055;-67
2022/10/19 03:43:33;;;;;;;6.30;5.05;;;15.30;99.90;;;;;;5095129;28;20102;-66
2022/10/19 03:45:59;;;;;;;8.57;4.70;;;15.20;99.90;;;;;;5094795;28;20107;-67
2022/10/19 03:48:25;;;;;;;8.40;5.40;;;15.20;99.90;;;;;;5094883;28;20461;-66
2022/10/19 03:51:21;;;;;;;6.40;5.07;;;15.20;99.90;;;;;;5095133;28;20464;-67
2022/10/19 03:53:47;;;;;;;8.52;5.65;;;15.10;99.90;;;;;;5074322;28;20089;-66
2022/10/19 03:56:16;;;;;;;8.25;5.72;;;15.10;99.90;;;;;;5076316;28;20040;-66
2022/10/19 03:58:44;;;;;;;10.68;5.47;;;15.10;99.90;;;;;;5074902;28;20025;-66
2022/10/19 04:01:18;;;;;;;11.13;5.70;;;15.10;99.90;;;;;;5074334;28;20029;-65
2022/10/19 04:03:45;;;;;;;8.55;5.55;;;15.10;99.90;;;;;;5074789;28;20060;-65
2022/10/19 04:06:14;;;;;;;8.80;5.47;;;15.10;99.90;;;;;;5073937;28;20074;-65
2022/10/19 04:08:40;;;;;;;9.18;5.82;;;15.10;99.90;;;;;;5074568;28;20032;-66
2022/10/19 04:11:09;;;;;;;9.50;5.78;;;15.10;99.90;;;;;;5074412;28;20469;-66
2022/10/19 04:13:35;;;;;;;10.50;5.60;;;15.10;99.90;;;;;;5074536;28;20081;-65
2022/10/19 04:16:01;;;;;;;7.15;4.90;;;15.10;99.90;;;;;;5074070;28;20028;-65
2022/10/19 04:18:27;;;;;;;10.07;5.75;;;15.00;99.90;;;;;;5074367;28;20029;-65
2022/10/19 04:21:03;;;;;;;6.22;4.57;;;15.00;99.90;;;;;;5073951;28;20417;-65
2022/10/19 04:23:31;;;;;;;7.47;5.25;;;15.00;99.90;;;;;;5074533;28;20347;-65
2022/10/19 04:26:03;;;;;;;6.57;4.65;;;15.00;99.90;;;;;;5056336;28;20024;-65
2022/10/19 04:28:29;;;;;;;6.75;4.95;;;15.00;99.90;;;;;;5074089;28;20032;-66
2022/10/19 04:30:55;;;;;;;7.22;5.13;;;15.00;99.90;;;;;;5074223;28;20369;-65
2022/10/19 04:33:21;;;;;;;11.98;5.63;;;15.00;99.90;;;;;;5073407;28;20035;-66
2022/10/19 04:35:46;;;;;;;6.88;4.93;;;15.00;99.90;;;;;;5073678;28;20025;-65
2022/10/19 04:38:12;;;;;;;7.10;4.93;;;14.90;99.90;;;;;;5073644;28;20419;-65
2022/10/19 04:40:38;;;;;;;8.30;4.97;;;14.90;99.90;;;;;;5073661;28;20473;-65
2022/10/19 04:43:04;;;;;;;7.00;5.15;;;14.80;99.90;;;;;;5073539;28;20025;-66
2022/10/19 04:45:29;;;;;;;7.00;5.47;;;14.80;99.90;;;;;;5073449;28;20032;-66
2022/10/19 04:47:55;;;;;;;7.07;5.10;;;14.80;99.90;;;;;;5073993;28;20082;-66
2022/10/19 04:50:24;;;;;;;6.50;5.07;;;14.70;99.90;;;;;;5073242;28;20519;-66
2022/10/19 04:52:50;;;;;;;5.93;4.68;;;14.80;99.90;;;;;;5073701;28;20523;-66
2022/10/19 04:55:16;;;;;;;7.10;5.05;;;14.70;99.90;;;;;;5073031;28;20051;-66
2022/10/19 04:57:42;;;;;;;9.40;5.32;;;14.70;99.90;;;;;;5073670;28;20029;-66
2022/10/19 05:00:08;;;;;;;9.10;5.50;;;14.80;99.90;;;;;;5072828;28;20036;-66
2022/10/19 05:02:34;;;;;;;7.88;5.53;;;14.70;99.90;;;;;;5071951;28;20397;-66
2022/10/19 05:04:59;;;;;;;7.22;5.30;;;14.70;99.90;;;;;;5073424;28;20039;-66
2022/10/19 05:07:25;;;;;;;10.27;5.90;;;14.60;99.90;;;;;;5072787;28;20021;-66
2022/10/19 05:09:50;;;;;;;8.25;5.38;;;14.60;99.90;;;;;;5073212;28;20041;-66
2022/10/19 05:12:16;;;;;;;13.70;5.95;;;14.60;99.90;;;;;;5072965;28;20028;-66
2022/10/19 05:14:42;;;;;;;6.28;4.30;;;14.60;99.90;;;;;;5073014;28;20103;-66
2022/10/19 05:17:07;;;;;;;7.63;5.05;;;14.50;99.90;;;;;;5072739;28;20116;-66
2022/10/19 05:19:33;;;;;;;21.95;5.35;;;14.50;99.90;;;;;;5073183;28;20372;-66
2022/10/19 05:21:59;;;;;;;6.75;5.03;;;14.50;99.90;;;;;;5073283;28;20500;-66
2022/10/19 05:24:24;;;;;;;8.65;4.85;;;14.50;99.90;;;;;;5072450;28;20099;-65
2022/10/19 05:26:50;;;;;;;8.05;4.57;;;14.50;99.90;;;;;;5072769;28;20029;-65
2022/10/19 05:29:16;;;;;;;6.95;4.47;;;14.50;99.90;;;;;;5072561;28;20045;-66
2022/10/19 05:31:41;;;;;;;6.65;4.57;;;14.50;99.90;;;;;;5072970;28;20024;-65
2022/10/19 05:34:07;;;;;;;5.05;4.13;;;14.50;99.90;;;;;;5072587;28;20052;-67
2022/10/19 05:36:35;;;;;;;8.32;4.68;;;14.50;99.90;;;;;;5072952;28;20078;-66
2022/10/19 05:39:13;;;;;;;7.38;4.85;;;14.50;99.90;;;;;;5072834;28;20032;-64
2022/10/19 05:41:41;;;;;;;8.20;4.70;;;14.50;99.90;;;;;;5054855;28;20495;-66
2022/10/19 05:44:11;;;;;;;8.32;6.03;;;14.50;99.90;;;;;;5072305;28;20032;-67
2022/10/19 05:46:36;;;;;;;10.82;5.32;;;14.50;99.90;;;;;;5085054;28;20081;-65
2022/10/19 05:49:02;;;;;;;10.15;5.38;;;14.50;99.90;;;;;;5092852;28;20040;-65
2022/10/19 05:51:28;;;;;;;9.00;5.80;;;14.50;99.90;;;;;;5092570;28;20020;-66
2022/10/19 05:53:55;;;;;;;8.35;5.13;;;14.60;99.90;;;;;;5092836;28;20024;-67
2022/10/19 05:56:24;;;;;;;7.13;5.38;;;14.60;99.90;;;;;;5092525;28;20170;-67
2022/10/19 05:58:50;;;;;;;10.38;5.07;;;14.60;99.90;;;;;;5083094;28;20074;-67
2022/10/19 06:01:20;;;;;;;11.70;5.38;;;14.60;99.90;;;;;;5071881;28;20103;-66
2022/10/19 06:03:46;;;;;;;7.75;5.07;;;14.60;99.90;;;;;;5054570;28;20025;-66
2022/10/19 06:06:12;;;;;;;8.48;5.75;;;14.60;99.90;;;;;;5072212;28;20044;-67
2022/10/19 06:08:38;;;;;;;7.70;5.30;;;14.60;99.90;;;;;;5072177;28;20060;-65
2022/10/19 06:11:16;;;;;;;8.38;5.35;;;14.60;99.90;;;;;;5072254;28;20043;-65
2022/10/19 06:13:43;;;;;;;10.25;5.35;;;14.60;99.90;;;;;;5072539;28;20033;-66
2022/10/19 06:16:10;;;;;;;11.35;5.35;;;14.70;99.90;;;;;;5071687;28;20040;-67
2022/10/19 06:18:36;;;;;;;7.03;5.35;;;14.70;99.90;;;;;;5072384;28;20491;-67
2022/10/19 06:21:07;;;;;;;8.60;5.28;;;14.80;99.90;;;;;;5072269;28;20107;-66
2022/10/19 06:23:33;;;;;;;;;;;14.70;99.90;;;;;;5073277;28;20050;-66
2022/10/19 06:26:03;;;;;;;7.80;4.82;;;14.80;99.90;;;;;;5072482;28;19908;-66
2022/10/19 06:28:29;;;;;;;8.50;5.03;;;14.80;99.90;;;;;;5071869;28;20017;-66
2022/10/19 06:30:56;;;;;;;6.75;4.88;;;14.80;99.90;;;;;;5072072;28;20036;-66
2022/10/19 06:33:22;;;;;;;7.07;5.30;;;14.90;99.90;;;;;;5071996;28;20036;-65
2022/10/19 06:35:48;;;;;;;7.28;5.30;;;14.90;99.90;;;;;;5072329;28;20021;-67
2022/10/19 06:38:13;;;;;;;9.02;5.47;;;15.00;99.90;;;;;;5071950;28;20020;-67
2022/10/19 06:40:39;;;;;;;7.82;5.95;;;15.10;99.90;;;;;;5072286;28;20036;-66
2022/10/19 06:43:05;;;;;;;6.35;4.45;;;15.00;99.90;;;;;;5072312;28;20021;-66
2022/10/19 06:45:31;;;;;;;7.35;4.85;;;15.10;99.90;;;;;;5053945;28;20071;-66
2022/10/19 06:47:58;;;;;;;7.38;4.55;;;15.10;99.90;;;;;;5072173;28;20027;-66
2022/10/19 06:50:23;;;;;;;5.53;4.47;;;15.20;99.90;;;;;;5071647;28;20039;-67
2022/10/19 06:52:49;;;;;;;8.73;4.88;;;15.30;99.90;;;;;;5072244;28;20423;-66
2022/10/19 06:55:16;;;;;;;6.15;4.57;;;15.30;99.90;;;;;;5069175;28;20033;-67
2022/10/19 06:57:43;;;;;;;7.95;4.28;;;15.30;99.90;;;;;;5053502;28;20025;-66
2022/10/19 07:00:09;;;;;;;6.15;4.55;;;15.30;99.90;;;;;;5055693;28;20025;-67
2022/10/19 07:02:35;;;;;;;6.85;4.50;;;15.30;99.90;;;;;;5055481;28;20025;-66
2022/10/19 07:05:00;;;;;;;5.60;4.30;;;15.30;99.90;;;;;;5055335;28;20083;-66
2022/10/19 07:07:26;;;;;;;6.82;4.68;;;15.40;99.90;;;;;;5055008;28;20064;-65
2022/10/19 07:09:52;;;;;;;5.05;4.05;;;15.40;99.90;;;;;;5055635;28;20115;-66
2022/10/19 07:12:18;;;;;;;6.60;4.47;;;15.40;99.90;;;;;;5055173;28;20408;-66
2022/10/19 07:14:44;;;;;;;9.52;5.25;;;15.60;99.90;;;;;;5055236;28;20484;-65
2022/10/19 07:17:10;;;;;;;6.55;4.15;;;15.80;99.90;;;;;;5055161;28;20029;-65
2022/10/19 07:19:36;;;;;;;9.93;3.97;;;16.10;99.90;;;;;;5055363;28;20102;-65
2022/10/19 07:22:02;;;;;;;5.70;4.07;;;16.40;99.90;;;;;;5055093;28;20466;-66
2022/10/19 07:24:28;;;;;;;7.05;4.50;;;16.60;99.90;;;;;;5054862;28;20473;-65
2022/10/19 07:26:53;;;;;;;5.25;3.63;;;16.90;99.90;;;;;;5037237;28;20017;-66
2022/10/19 07:29:19;;;;;;;4.90;3.53;;;17.10;99.30;;;;;;5054770;28;20037;-65
2022/10/19 07:31:44;;;;;;;4.35;3.65;;;17.30;98.20;;;;;;5055238;28;20021;-65
2022/10/19 07:34:12;;;;;;;7.45;3.40;;;17.50;97.90;;;;;;5054903;28;20025;-66
2022/10/19 07:36:43;;;;;;;5.43;3.30;;;17.70;97.30;;;;;;5054750;28;20029;-66
2022/10/19 07:39:09;;;;;;;3.90;3.05;;;18.00;96.10;;;;;;5054979;28;20033;-66
2022/10/19 07:41:35;;;;;;;3.88;3.10;;;18.30;94.90;;;;;;5054677;28;20083;-65
2022/10/19 07:44:02;;;;;;;4.88;2.83;;;18.40;94.10;;;;;;5055047;28;20025;-65
2022/10/19 07:46:32;;;;;;;3.83;2.72;;;18.60;94.00;;;;;;5054534;28;20021;-65
2022/10/19 07:48:58;;;;;;;3.60;3.20;;;18.90;92.20;;;;;;5056229;28;20432;-65
2022/10/19 07:51:24;;;;;;;4.63;2.03;;;18.90;90.20;;;;;;5074253;28;20253;-65
2022/10/19 07:53:50;;;;;;;3.13;2.00;;;18.90;90.00;;;;;;5074930;28;20025;-65
2022/10/19 07:56:26;;;;;;;4.03;2.60;;;18.80;89.50;;;;;;5084647;28;20056;-66
2022/10/19 07:58:54;;;;;;;2.80;2.13;;;18.90;90.20;;;;;;5094854;28;20051;-66
2022/10/19 08:01:25;;;;;;;4.78;2.38;;;18.80;87.90;;;;;;5079113;28;20519;-65
2022/10/19 08:03:52;;;;;;;2.67;2.38;;;19.00;89.00;;;;;;5074643;28;20028;-67
2022/10/19 08:06:19;;;;;;;7.25;2.70;;;19.20;86.20;;;;;;5074005;28;20039;-67
2022/10/19 08:08:46;;;;;;;3.55;2.22;;;19.40;87.60;;;;;;5073644;28;20025;-66
2022/10/19 08:11:17;;;;;;;2.55;2.13;;;19.60;86.90;;;;;;5074003;28;20111;-66
2022/10/19 08:13:43;;;;;;;2.38;1.95;;;19.80;83.20;;;;;;5074257;28;20036;-66
2022/10/19 08:16:43;;;;;;;3.42;2.03;;;19.80;84.10;;;;;;5074254;28;20412;-66
2022/10/19 08:19:10;;;;;;;4.80;2.28;;;20.00;80.80;;;;;;5074317;28;20067;-66
2022/10/19 08:21:37;;;;;;;2.28;1.92;;;20.30;80.10;;;;;;5074190;28;20070;-66
2022/10/19 08:24:04;;;;;;;7.00;2.00;;;20.50;78.20;;;;;;5074238;28;20024;-66
2022/10/19 08:26:33;;;;;;;2.45;2.00;;;20.60;76.80;;;;;;5073728;28;20029;-66
2022/10/19 08:29:00;;;;;;;2.92;2.05;;;20.70;77.20;;;;;;5074032;28;20028;-66
2022/10/19 08:31:26;;;;;;;2.90;1.90;;;20.90;77.60;;;;;;5073535;28;20032;-65
2022/10/19 08:33:52;;;;;;;2.63;1.83;;;20.90;75.90;;;;;;5073614;28;20380;-66
2022/10/19 08:36:18;;;;;;;3.75;2.00;;;21.10;74.40;;;;;;5073578;28;20029;-67
2022/10/19 08:38:47;;;;;;;4.35;2.38;;;21.30;73.40;;;;;;5073713;28;20021;-66
2022/10/19 08:41:41;;;;;;;2.47;2.17;;;21.40;71.80;;;;;;5073682;28;20461;-66
2022/10/19 08:44:25;;;;;;;3.22;2.30;;;21.50;69.40;;;;;;5072842;28;20068;-66
2022/10/19 08:47:00;;;;;;;2.42;2.00;;;21.00;69.00;;;;;;5074156;28;20151;-65
2022/10/19 08:49:27;;;;;;;2.58;1.83;;;21.10;70.60;;;;;;5073315;28;20029;-65
2022/10/19 08:51:57;;;;;;;3.50;2.60;;;21.20;71.30;;;;;;5073459;28;20016;-65
2022/10/19 08:54:27;;;;;;;2.93;2.20;;;21.10;71.30;;;;;;5073654;28;20074;-64
2022/10/19 08:57:09;;;;;;;4.00;2.70;;;21.00;70.80;;;;;;5073305;28;20476;-67
2022/10/19 08:59:48;;;;;;;3.47;2.45;;;20.90;70.30;;;;;;5072826;28;20032;-65
2022/10/19 09:02:20;;;;;;;2.80;2.50;;;20.80;71.30;;;;;;5073239;28;20465;-66
2022/10/19 09:04:51;;;;;;;3.15;2.03;;;20.60;70.00;;;;;;5073655;28;20377;-66
2022/10/19 09:07:21;;;;;;;2.80;2.00;;;20.30;70.40;;;;;;5073389;28;20039;-66
2022/10/19 09:10:25;;;;;;;3.28;2.40;;;20.20;70.70;;;;;;5073444;28;20028;-65
2022/10/19 09:13:04;;;;;;;3.42;2.70;;;19.80;72.30;;;;;;4991801;28;20116;-66
2022/10/19 09:15:49;;;;;;;5.45;2.70;;;19.80;73.30;;;;;;5064879;28;20059;-65
2022/10/19 09:18:27;;;;;;;4.00;2.22;;;19.80;73.60;;;;;;5073001;28;20489;-65
2022/10/19 09:20:57;;;;;;;2.50;2.20;;;19.80;73.90;;;;;;5072789;28;20548;-66
2022/10/19 09:23:49;;;;;;;2.97;2.13;;;19.70;73.10;;;;;;5073145;28;20035;-65
2022/10/19 09:26:18;;;;;;;3.20;2.33;;;19.60;74.20;;;;;;5054841;28;20029;-66
2022/10/19 09:28:57;;;;;;;4.60;2.80;;;19.50;74.80;;;;;;5072403;28;20472;-67
2022/10/19 09:31:34;;;;;;;2.60;2.40;;;19.40;75.10;;;;;;5072255;28;20480;-65
2022/10/19 09:34:19;;;;;;;3.15;2.85;;;19.30;75.30;;;;;;5072770;28;20024;-65
2022/10/19 09:36:52;;;;;;;3.40;2.50;;;19.20;76.50;;;;;;5072232;28;20025;-66
2022/10/19 09:39:19;;;;;;;3.38;2.67;;;19.20;77.30;;;;;;5072619;28;20071;-65
2022/10/19 09:41:50;;;;;;;4.03;3.08;;;19.20;77.60;;;;;;5072224;28;20457;-66
2022/10/19 09:44:16;;;;;;;4.03;3.42;;;19.10;76.80;;;;;;5072484;28;20385;-65
2022/10/19 09:47:01;;;;;;;4.13;2.78;;;19.10;77.30;;;;;;5071983;28;20370;-65
2022/10/19 09:49:42;;;;;;;3.28;2.88;;;19.10;77.40;;;;;;5072199;28;20043;-65
2022/10/19 09:52:30;;;;;;;3.83;2.83;;;19.10;78.40;;;;;;5060441;28;20025;-66
2022/10/19 09:55:05;;;;;;;4.10;2.85;;;19.30;78.80;;;;;;5052434;28;20036;-66
2022/10/19 09:57:31;;;;;;;4.78;2.88;;;19.50;79.30;;;;;;5045692;28;20068;-66
2022/10/19 09:59:57;;;;;;;4.65;2.63;;;19.70;78.20;;;;;;5052258;28;20032;-66
2022/10/19 10:02:31;;;;;;;2.88;2.50;;;19.70;77.30;;;;;;5051802;28;20033;-66
2022/10/19 10:05:06;;;;;;;3.13;2.58;;;19.70;75.40;;;;;;5052487;28;20017;-65
2022/10/19 10:07:36;;;;;;;4.68;2.60;;;19.80;75.20;;;;;;5052021;28;20025;-66
2022/10/19 10:10:19;;;;;;;3.17;2.80;;;19.80;74.80;;;;;;5051847;28;20033;-66
2022/10/19 10:12:45;;;;;;;3.17;2.70;;;19.80;75.30;;;;;;5052185;28;20564;-66
2022/10/19 10:15:24;;;;;;;5.75;2.70;;;19.80;75.50;;;;;;5052395;28;20029;-66
2022/10/19 10:17:50;;;;;;;2.97;2.65;;;19.90;75.50;;;;;;5034645;28;20130;-66
2022/10/19 10:20:31;;;;;;;2.70;2.50;;;19.80;75.80;;;;;;5051944;28;20086;-66
2022/10/19 10:23:05;;;;;;;5.43;2.90;;;19.80;75.80;;;;;;5052380;28;20070;-65
2022/10/19 10:25:33;;;;;;;3.83;2.83;;;19.80;75.20;;;;;;5051750;28;20262;-66
2022/10/19 10:28:01;;;;;;;3.10;2.45;;;19.80;74.20;;;;;;5052018;28;20025;-66
2022/10/19 10:30:32;;;;;;;3.83;2.67;;;19.70;74.90;;;;;;5033825;28;20331;-65
2022/10/19 10:32:59;;;;;;;3.83;2.75;;;19.80;74.50;;;;;;5054202;28;20079;-66
2022/10/19 10:35:34;;;;;;;3.10;2.60;;;19.80;74.00;;;;;;5055812;28;20029;-68
2022/10/19 10:38:12;;;;;;;4.53;2.97;;;19.70;75.70;;;;;;5055634;28;20413;-66
2022/10/19 10:40:38;;;;;;;4.30;3.13;;;19.70;76.40;;;;;;5055306;28;20071;-66
2022/10/19 10:43:08;;;;;;;3.30;3.00;;;19.60;76.10;;;;;;5055759;28;20378;-66
2022/10/19 10:45:46;;;;;;;4.78;2.85;;;19.60;76.20;;;;;;5055353;28;20036;-66
2022/10/19 10:48:28;;;;;;;3.85;2.58;;;19.60;76.50;;;;;;5055846;28;20029;-66
2022/10/19 10:50:56;;;;;;;4.00;2.83;;;19.50;75.50;;;;;;5055678;28;20120;-66
2022/10/19 10:53:44;;;;;;;3.85;3.00;;;19.50;76.40;;;;;;5055658;28;20017;-66
2022/10/19 10:56:27;;;;;;;5.50;3.05;;;19.50;75.90;;;;;;5063098;28;20092;-66
2022/10/19 10:58:58;;;;;;;4.45;2.70;;;19.50;74.80;;;;;;5075773;28;20028;-65
2022/10/19 11:01:31;;;;;;;3.05;2.70;;;19.40;75.40;;;;;;5075302;28;20028;-67
2022/10/19 11:04:05;;;;;;;4.22;3.05;;;19.50;76.40;;;;;;5075634;28;20036;-67
2022/10/19 11:06:35;;;;;;;4.28;3.17;;;19.50;75.50;;;;;;5074976;28;20078;-66
2022/10/19 11:09:33;;;;;;;3.22;2.90;;;19.40;75.70;;;;;;5075543;28;20029;-66
2022/10/19 11:12:03;;;;;;;5.00;2.78;;;19.50;74.20;;;;;;5075449;28;20526;-66
2022/10/19 11:14:38;;;;;;;4.28;2.92;;;19.40;74.80;;;;;;5075221;28;20465;-66
2022/10/19 11:17:15;;;;;;;3.00;2.70;;;19.40;75.50;;;;;;5074787;28;20532;-66
2022/10/19 11:19:44;;;;;;;4.50;2.65;;;19.40;76.00;;;;;;5074513;28;20040;-66
2022/10/19 11:22:12;;;;;;;3.80;3.10;;;19.50;76.10;;;;;;5075061;28;20108;-66
2022/10/19 11:24:50;;;;;;;3.53;2.70;;;19.60;76.00;;;;;;5074918;28;20029;-65
2022/10/19 11:27:24;;;;;;;5.03;3.00;;;19.70;75.30;;;;;;5075165;28;20031;-66
2022/10/19 11:30:02;;;;;;;4.03;2.83;;;19.70;73.60;;;;;;5074846;28;20468;-66
2022/10/19 11:32:57;;;;;;;3.03;2.58;;;19.70;72.90;;;;;;5075146;28;20028;-66
2022/10/19 11:35:52;;;;;;;3.65;2.50;;;19.70;74.30;;;;;;5044736;28;20037;-66
2022/10/19 11:39:04;;;;;;;4.40;2.55;;;19.80;73.30;;;;;;5063949;28;20032;-65
2022/10/19 11:41:45;;;;;;;5.35;2.90;;;19.70;71.60;;;;;;5000018;28;20130;-67
2022/10/19 11:44:46;;;;;;;3.45;2.80;;;19.70;72.00;;;;;;5072149;28;20384;-66
2022/10/19 11:47:42;;;;;;;2.35;2.15;;;19.70;72.20;;;;;;4993153;28;20034;-66
2022/10/19 11:50:40;;;;;;;3.60;2.85;;;19.70;73.10;;;;;;5072487;28;20505;-65
2022/10/19 11:53:17;;;;;;;2.70;2.35;;;19.70;72.20;;;;;;5022188;28;20041;-66
2022/10/19 11:56:18;;;;;;;2.60;2.40;;;19.80;72.30;;;;;;5066824;28;20443;-65
2022/10/19 11:58:55;;;;;;;4.20;2.58;;;19.80;69.80;;;;;;5038396;28;20545;-67
2022/10/19 12:01:24;;;;;;;3.78;2.45;;;19.90;69.70;;;;;;5074680;28;20067;-66
2022/10/19 12:04:28;;;;;;;2.83;2.10;;;19.90;69.40;;;;;;5074013;28;20074;-66
2022/10/19 12:07:25;;;;;;;3.97;2.60;;;19.90;69.10;;;;;;5038392;28;20398;-66
2022/10/19 12:10:11;;;;;;;3.83;2.30;;;19.90;68.70;;;;;;5074022;28;20621;-65
2022/10/19 12:12:44;;;;;;;5.65;2.78;;;19.80;67.30;;;;;;5073673;28;20060;-65
2022/10/19 12:15:34;;;;;;;2.35;2.15;;;19.80;67.30;;;;;;5074361;28;20029;-66
2022/10/19 12:18:38;;;;;;;2.80;2.15;;;19.70;66.60;;;;;;5074350;28;20033;-65
2022/10/19 12:21:16;;;;;;;2.50;2.03;;;19.70;67.00;;;;;;5070869;28;20123;-67
2022/10/19 12:23:45;;;;;;;2.22;2.03;;;19.70;67.90;;;;;;5073524;28;20028;-66
2022/10/19 12:26:15;;;;;;;2.10;1.85;;;19.70;67.80;;;;;;5074075;28;20024;-66
2022/10/19 12:28:46;;;;;;;2.83;2.00;;;19.80;67.40;;;;;;5073864;28;20039;-66
2022/10/19 12:31:12;;;;;;;2.38;1.95;;;19.80;66.20;;;;;;5073926;28;20033;-66
2022/10/19 12:33:55;;;;;;;2.17;1.95;;;19.80;65.70;;;;;;5073236;28;20393;-66
2022/10/19 12:36:41;;;;;;;3.33;1.98;;;19.80;64.50;;;;;;5073591;28;20479;-68
2022/10/19 12:39:35;;;;;;;5.85;2.63;;;19.70;64.10;;;;;;5073820;28;20036;-65
2022/10/19 12:42:21;;;;;;;2.10;1.90;;;19.70;64.50;;;;;;5073508;28;20020;-65
2022/10/19 12:45:12;;;;;;;2.25;1.95;;;19.70;65.20;;;;;;5073752;28;20474;-66
2022/10/19 12:47:38;;;;;;;;;;;19.70;65.60;;;;;;5073508;28;20080;-66
2022/10/19 12:50:04;;;;;;;5.35;2.10;;;19.70;65.20;;;;;;5073468;28;20373;-66
2022/10/19 12:52:48;;;;;;;3.05;1.98;;;19.70;65.30;;;;;;5073364;28;20111;-66
2022/10/19 12:55:33;;;;;;;5.05;2.67;;;19.70;65.50;;;;;;5073272;28;20341;-68
2022/10/19 12:58:21;;;;;;;5.07;2.83;;;19.70;67.50;;;;;;5093045;28;20120;-66
2022/10/19 13:01:08;;;;;;;4.18;3.42;;;19.70;68.00;;;;;;5093616;28;20059;-65
2022/10/19 13:03:37;;;;;;;5.82;3.47;;;19.70;68.70;;;;;;5093456;28;20024;-66
2022/10/19 13:06:38;;;;;;;5.75;3.92;;;19.70;68.40;;;;;;5093313;28;20468;-65
2022/10/19 13:09:06;;;;;;;4.35;3.72;;;19.70;68.10;;;;;;5071066;28;20032;-66
2022/10/19 13:11:33;;;;;;;5.40;4.10;;;19.50;68.50;;;;;;5093249;28;20495;-66